createdAt,value
2018-11-06T00:02:35.162Z,73.25
2018-11-06T00:07:37.835Z,73.46
2018-11-06T00:12:40.220Z,73.30
2018-11-06T00:17:42.153Z,73.58
2018-11-06T00:22:44.368Z,74.01
2018-11-06T00:27:46.304Z,74.01
2018-11-06T00:32:48.444Z,74.62
2018-11-06T00:37:50.832Z,75.15
2018-11-06T00:42:52.820Z,74.99
2018-11-06T00:47:54.748Z,74.69
2018-11-06T00:52:57.689Z,74.97
2018-11-06T00:57:59.609Z,75.04
2018-11-06T01:03:01.547Z,75.40
2018-11-06T01:08:03.493Z,75.10
2018-11-06T01:13:05.696Z,75.05
2018-11-06T01:18:07.640Z,75.12
2018-11-06T01:23:09.951Z,75.57
2018-11-06T01:28:11.903Z,75.52
2018-11-06T01:33:14.013Z,75.73
2018-11-06T01:38:16.027Z,75.11
2018-11-06T01:43:18.279Z,75.25
2018-11-06T01:48:20.894Z,75.05
2018-11-06T01:53:23.459Z,75.12
2018-11-06T01:58:25.374Z,75.04
2018-11-06T02:03:27.348Z,74.67
2018-11-06T02:08:29.295Z,74.28
2018-11-06T02:13:31.243Z,74.68
2018-11-06T02:18:33.360Z,75.43
2018-11-06T02:23:35.859Z,75.24
2018-11-06T02:28:38.667Z,74.79
2018-11-06T02:33:41.306Z,75.15
2018-11-06T02:38:43.844Z,75.77
2018-11-06T02:43:45.992Z,75.31
2018-11-06T02:48:47.934Z,75.27
2018-11-06T02:53:50.159Z,75.66
2018-11-06T02:58:52.082Z,75.56
2018-11-06T03:03:54.007Z,75.52
2018-11-06T03:08:57.016Z,75.38
2018-11-06T03:13:58.983Z,75.85
2018-11-06T03:19:00.922Z,75.96
2018-11-06T03:24:03.255Z,76.03
2018-11-06T03:29:05.194Z,76.26
2018-11-06T03:34:07.282Z,75.93
2018-11-06T03:39:09.699Z,75.73
2018-11-06T03:44:11.673Z,76.08
2018-11-06T03:49:13.606Z,75.57
2018-11-06T03:54:15.943Z,75.44
2018-11-06T03:59:18.542Z,76.08
2018-11-06T04:04:20.541Z,75.75
2018-11-06T04:09:22.899Z,76.35
2018-11-06T04:14:24.852Z,76.14
2018-11-06T04:19:27.442Z,76.21
2018-11-06T04:24:29.421Z,76.72
2018-11-06T04:29:31.707Z,75.92
2018-11-06T04:34:33.915Z,76.20
2018-11-06T04:39:35.872Z,76.26
2018-11-06T04:44:38.173Z,75.93
2018-11-06T04:49:40.123Z,76.51
2018-11-06T04:54:42.231Z,76.84
2018-11-06T04:59:44.289Z,76.45
2018-11-06T05:04:46.285Z,76.61
2018-11-06T05:09:49.626Z,76.79
2018-11-06T05:14:51.903Z,76.57
2018-11-06T05:19:54.126Z,76.94
2018-11-06T05:24:56.068Z,76.83
2018-11-06T05:29:57.997Z,76.88
2018-11-06T05:35:00.247Z,76.82
2018-11-06T05:40:14.023Z,76.87
2018-11-06T05:45:15.979Z,76.60
2018-11-06T05:50:17.906Z,76.51
2018-11-06T05:55:20.202Z,76.46
2018-11-06T06:00:22.167Z,76.29
2018-11-06T06:05:24.120Z,76.01
2018-11-06T06:10:26.539Z,75.97
2018-11-06T06:15:28.621Z,76.61
2018-11-06T06:20:30.579Z,76.63
2018-11-06T06:25:32.499Z,76.21
2018-11-06T06:30:35.051Z,75.63
2018-11-06T06:35:36.988Z,75.51
2018-11-06T06:40:39.046Z,75.34
2018-11-06T06:45:41.021Z,74.64
2018-11-06T06:50:42.949Z,74.43
2018-11-06T06:55:45.212Z,74.48
2018-11-06T07:00:47.169Z,73.88
2018-11-06T07:05:49.107Z,73.95
2018-11-06T07:10:51.200Z,73.44
2018-11-06T07:15:53.161Z,73.13
2018-11-06T07:20:55.112Z,72.66
2018-11-06T07:25:57.038Z,72.44
2018-11-06T07:30:58.976Z,72.07
2018-11-06T07:36:01.195Z,71.85
2018-11-06T07:41:03.405Z,72.06
2018-11-06T07:46:05.828Z,71.45
2018-11-06T07:51:08.041Z,71.04
2018-11-06T07:56:10.000Z,71.08
2018-11-06T08:01:11.956Z,70.84
2018-11-06T08:06:13.898Z,70.56
2018-11-06T08:11:15.952Z,70.12
2018-11-06T08:16:17.859Z,69.86
2018-11-06T08:21:19.795Z,69.51
2018-11-06T08:26:21.706Z,68.67
2018-11-06T08:31:23.874Z,68.00
2018-11-06T08:36:25.707Z,67.44
2018-11-06T08:41:28.889Z,66.04
2018-11-06T08:46:31.439Z,65.58
2018-11-06T08:51:33.360Z,65.62
2018-11-06T08:56:35.364Z,64.75
2018-11-06T09:01:37.920Z,64.89
2018-11-06T09:06:39.944Z,64.56
2018-11-06T09:11:41.887Z,64.19
2018-11-06T09:16:43.804Z,64.04
2018-11-06T09:21:45.711Z,63.91
2018-11-06T09:26:47.644Z,62.07
2018-11-06T09:31:49.748Z,62.68
2018-11-06T09:36:51.665Z,60.54
2018-11-06T09:41:53.615Z,59.76
2018-11-06T09:46:55.515Z,60.70
2018-11-06T09:51:57.466Z,59.46
2018-11-06T09:56:59.731Z,59.14
2018-11-06T10:02:01.717Z,58.40
2018-11-06T10:07:03.923Z,58.27
2018-11-06T10:12:06.078Z,57.60
2018-11-06T10:17:08.003Z,57.26
2018-11-06T10:22:09.951Z,55.66
2018-11-06T10:27:11.900Z,54.97
2018-11-06T10:32:13.818Z,54.33
2018-11-06T10:37:15.866Z,53.96
2018-11-06T10:42:17.807Z,53.82
2018-11-06T10:47:19.757Z,53.63
2018-11-06T10:52:21.683Z,53.02
2018-11-06T10:57:23.606Z,52.65
2018-11-06T11:02:31.358Z,52.30
2018-11-06T11:07:33.304Z,50.88
2018-11-06T11:12:35.448Z,51.13
2018-11-06T11:17:37.623Z,51.13
2018-11-06T11:22:40.095Z,50.82
2018-11-06T11:27:42.467Z,50.38
2018-11-06T11:32:45.734Z,50.53
2018-11-06T11:37:47.836Z,50.36
2018-11-06T11:42:49.708Z,49.74
2018-11-06T11:47:51.951Z,48.78
2018-11-06T11:52:54.133Z,48.25
2018-11-06T11:57:56.424Z,47.19
2018-11-06T12:02:58.335Z,46.55
2018-11-06T12:08:00.674Z,45.96
2018-11-06T12:13:02.608Z,45.96
2018-11-06T12:18:04.841Z,46.08
2018-11-06T12:23:06.812Z,45.71
2018-11-06T12:28:08.900Z,45.12
2018-11-06T12:33:10.871Z,43.91
2018-11-06T12:38:12.960Z,44.17
2018-11-06T12:43:15.258Z,43.19
2018-11-06T12:48:17.238Z,42.29
2018-11-06T12:53:19.167Z,41.91
2018-11-06T12:58:25.720Z,41.08
2018-11-06T13:03:27.724Z,40.16
2018-11-06T13:08:29.631Z,39.27
2018-11-06T13:13:31.760Z,39.05
2018-11-06T13:18:33.979Z,38.46
2018-11-06T13:23:36.284Z,38.46
2018-11-06T13:28:38.471Z,38.96
2018-11-06T13:33:40.481Z,38.78
2018-11-06T13:38:42.419Z,37.88
2018-11-06T13:43:44.595Z,37.92
2018-11-06T13:48:46.346Z,38.00
2018-11-06T13:53:48.279Z,38.46
2018-11-06T13:58:50.240Z,37.96
2018-11-06T14:03:52.188Z,38.17
2018-11-06T14:08:54.296Z,37.60
2018-11-06T14:13:56.484Z,37.63
2018-11-06T14:18:58.468Z,38.29
2018-11-06T14:24:00.391Z,39.53
2018-11-06T14:29:02.345Z,40.31
2018-11-06T14:34:04.425Z,41.11
2018-11-06T14:39:06.914Z,40.84
2018-11-06T14:44:08.872Z,41.48
2018-11-06T14:49:10.854Z,43.81
2018-11-06T14:54:12.821Z,47.54
2018-11-06T14:59:15.084Z,50.98
2018-11-06T15:04:17.031Z,52.72
2018-11-06T15:09:19.000Z,54.58
2018-11-06T15:14:21.057Z,55.47
2018-11-06T15:19:23.312Z,57.38
2018-11-06T15:24:25.227Z,58.34
2018-11-06T15:29:27.169Z,59.05
2018-11-06T15:34:29.105Z,59.88
2018-11-06T15:39:31.094Z,60.64
2018-11-06T15:44:33.197Z,60.94
2018-11-06T15:49:35.099Z,61.58
2018-11-06T15:54:37.127Z,61.25
2018-11-06T15:59:38.964Z,60.25
2018-11-06T16:04:40.903Z,60.94
2018-11-06T16:09:42.849Z,62.07
2018-11-06T16:14:45.068Z,62.91
2018-11-06T16:19:47.032Z,63.03
2018-11-06T16:24:49.552Z,63.61
2018-11-06T16:29:51.534Z,64.16
2018-11-06T16:34:53.691Z,64.12
2018-11-06T16:39:55.683Z,64.51
2018-11-06T16:44:57.660Z,64.76
2018-11-06T16:49:59.620Z,65.22
2018-11-06T16:55:01.981Z,65.73
2018-11-06T17:00:05.319Z,66.00
2018-11-06T17:05:07.896Z,66.00
2018-11-06T17:10:11.059Z,65.92
2018-11-06T17:15:14.850Z,66.14
2018-11-06T17:20:17.111Z,66.26
2018-11-06T17:25:20.305Z,66.66
2018-11-06T17:30:22.255Z,66.75
2018-11-06T17:35:24.186Z,66.41
2018-11-06T17:40:26.141Z,66.72
2018-11-06T17:45:28.161Z,66.05
2018-11-06T17:50:36.782Z,66.63
2018-11-06T17:55:39.327Z,66.94
2018-11-06T18:00:41.272Z,67.36
2018-11-06T18:05:43.199Z,67.91
2018-11-06T18:10:45.131Z,67.94
2018-11-06T18:15:47.278Z,67.94
2018-11-06T18:20:49.367Z,68.07
2018-11-06T18:25:51.458Z,68.68
2018-11-06T18:30:53.247Z,68.29
2018-11-06T18:35:55.176Z,68.52
2018-11-06T18:40:57.283Z,69.20
2018-11-06T18:45:59.226Z,68.76
2018-11-06T18:51:01.155Z,68.83
2018-11-06T18:56:03.312Z,69.28
2018-11-06T19:01:05.469Z,69.12
2018-11-06T19:06:07.567Z,69.79
2018-11-06T19:11:09.484Z,69.55
2018-11-06T19:16:11.478Z,69.59
2018-11-06T19:21:13.463Z,68.97
2018-11-06T19:26:15.376Z,69.25
2018-11-06T19:31:17.587Z,69.86
2018-11-06T19:36:19.605Z,69.67
2018-11-06T19:41:21.524Z,70.30
2018-11-06T19:46:23.463Z,70.06
2018-11-06T19:51:25.435Z,69.77
2018-11-06T19:56:27.391Z,69.47
2018-11-06T20:01:29.311Z,69.91
2018-11-06T20:06:31.275Z,70.68
2018-11-06T20:11:33.303Z,70.88
2018-11-06T20:16:35.179Z,70.99
2018-11-06T20:21:37.334Z,71.88
2018-11-06T20:26:39.307Z,71.04
2018-11-06T20:31:41.253Z,71.57
2018-11-06T20:36:43.574Z,72.14
2018-11-06T20:41:45.590Z,71.85
2018-11-06T20:46:47.538Z,72.15
2018-11-06T20:51:50.291Z,71.37
2018-11-06T20:56:52.413Z,72.20
2018-11-06T21:01:54.475Z,72.49
2018-11-06T21:06:56.679Z,72.70
2018-11-06T21:11:58.634Z,72.68
2018-11-06T21:17:00.505Z,73.52
2018-11-06T21:22:02.916Z,74.25
2018-11-06T21:27:05.552Z,74.38
2018-11-06T21:32:07.325Z,74.64
2018-11-06T21:37:09.561Z,74.44
2018-11-06T21:42:11.548Z,74.67
2018-11-06T21:47:13.484Z,74.93
2018-11-06T21:52:15.440Z,74.79
2018-11-06T21:57:17.465Z,74.95
2018-11-06T22:02:19.427Z,75.11
2018-11-06T22:07:21.361Z,75.90
2018-11-06T22:12:23.349Z,75.96
2018-11-06T22:17:25.585Z,76.15
2018-11-06T22:22:27.596Z,76.12
2018-11-06T22:27:29.539Z,76.52
2018-11-06T22:32:32.217Z,76.49
2018-11-06T22:37:34.359Z,76.39
2018-11-06T22:42:36.868Z,76.79
2018-11-06T22:47:39.053Z,77.12
2018-11-06T22:52:41.369Z,77.15
2018-11-06T22:57:43.591Z,77.37
2018-11-06T23:02:45.515Z,76.62
2018-11-06T23:08:55.308Z,77.23
2018-11-06T23:13:57.254Z,77.69
2018-11-06T23:18:59.560Z,77.99
2018-11-06T23:24:01.567Z,77.81
2018-11-06T23:29:04.036Z,78.08
2018-11-06T23:34:06.107Z,77.31
2018-11-06T23:39:08.717Z,77.22
2018-11-06T23:44:10.671Z,76.96
2018-11-06T23:49:12.595Z,77.23
2018-11-06T23:54:14.512Z,77.51
2018-11-06T23:59:16.491Z,77.61
